sensor_id;sensor_type;location;lat;lon;timestamp;P1;durP1;ratioP1;P2;durP2;ratioP2
15677;SDS011;7939;50.814;6.368;2024-03-07T00:02:22;33.92;;;20.42;;
15677;SDS011;7939;50.814;6.368;2024-03-07T00:04:49;35.20;;;21.05;;
15677;SDS011;7939;50.814;6.368;2024-03-07T00:07:16;35.33;;;22.38;;
15677;SDS011;7939;50.814;6.368;2024-03-07T00:09:43;36.60;;;22.70;;
15677;SDS011;7939;50.814;6.368;2024-03-07T00:12:11;30.77;;;18.70;;
15677;SDS011;7939;50.814;6.368;2024-03-07T00:14:38;28.33;;;18.25;;
15677;SDS011;7939;50.814;6.368;2024-03-07T00:17:06;29.08;;;18.98;;
15677;SDS011;7939;50.814;6.368;2024-03-07T00:19:33;32.92;;;20.40;;
15677;SDS011;7939;50.814;6.368;2024-03-07T00:22:00;29.35;;;19.23;;
15677;SDS011;7939;50.814;6.368;2024-03-07T00:24:26;30.38;;;18.98;;
15677;SDS011;7939;50.814;6.368;2024-03-07T00:26:53;31.90;;;19.85;;
15677;SDS011;7939;50.814;6.368;2024-03-07T00:29:20;24.73;;;16.63;;
15677;SDS011;7939;50.814;6.368;2024-03-07T00:31:46;28.17;;;18.67;;
15677;SDS011;7939;50.814;6.368;2024-03-07T00:34:15;31.63;;;19.77;;
15677;SDS011;7939;50.814;6.368;2024-03-07T00:36:44;29.77;;;18.13;;
15677;SDS011;7939;50.814;6.368;2024-03-07T00:39:11;28.42;;;18.63;;
15677;SDS011;7939;50.814;6.368;2024-03-07T00:41:38;28.65;;;17.67;;
15677;SDS011;7939;50.814;6.368;2024-03-07T00:44:04;33.83;;;20.02;;
15677;SDS011;7939;50.814;6.368;2024-03-07T00:46:31;30.85;;;19.90;;
15677;SDS011;7939;50.814;6.368;2024-03-07T00:48:58;28.67;;;17.52;;
15677;SDS011;7939;50.814;6.368;2024-03-07T00:51:26;31.38;;;19.98;;
15677;SDS011;7939;50.814;6.368;2024-03-07T00:53:53;35.03;;;20.35;;
15677;SDS011;7939;50.814;6.368;2024-03-07T00:56:20;34.83;;;21.30;;
15677;SDS011;7939;50.814;6.368;2024-03-07T00:58:47;34.70;;;20.60;;
15677;SDS011;7939;50.814;6.368;2024-03-07T01:01:14;38.45;;;22.05;;
15677;SDS011;7939;50.814;6.368;2024-03-07T01:03:41;31.27;;;19.40;;
15677;SDS011;7939;50.814;6.368;2024-03-07T01:06:08;34.50;;;20.90;;
15677;SDS011;7939;50.814;6.368;2024-03-07T01:08:37;37.92;;;22.65;;
15677;SDS011;7939;50.814;6.368;2024-03-07T01:11:03;34.13;;;20.45;;
15677;SDS011;7939;50.814;6.368;2024-03-07T01:13:34;35.33;;;21.00;;
15677;SDS011;7939;50.814;6.368;2024-03-07T01:16:01;29.15;;;19.60;;
15677;SDS011;7939;50.814;6.368;2024-03-07T01:18:28;32.80;;;21.05;;
15677;SDS011;7939;50.814;6.368;2024-03-07T01:20:55;33.45;;;20.48;;
15677;SDS011;7939;50.814;6.368;2024-03-07T01:23:22;33.13;;;19.35;;
15677;SDS011;7939;50.814;6.368;2024-03-07T01:25:50;31.58;;;19.13;;
15677;SDS011;7939;50.814;6.368;2024-03-07T01:28:17;32.80;;;20.02;;
15677;SDS011;7939;50.814;6.368;2024-03-07T01:30:43;31.63;;;20.55;;
15677;SDS011;7939;50.814;6.368;2024-03-07T01:33:10;30.55;;;20.63;;
15677;SDS011;7939;50.814;6.368;2024-03-07T01:35:37;31.42;;;21.00;;
15677;SDS011;7939;50.814;6.368;2024-03-07T01:38:03;32.42;;;20.80;;
15677;SDS011;7939;50.814;6.368;2024-03-07T01:40:30;33.83;;;20.90;;
15677;SDS011;7939;50.814;6.368;2024-03-07T01:42:58;28.52;;;20.13;;
15677;SDS011;7939;50.814;6.368;2024-03-07T01:45:25;30.95;;;20.48;;
15677;SDS011;7939;50.814;6.368;2024-03-07T01:47:51;34.70;;;21.17;;
15677;SDS011;7939;50.814;6.368;2024-03-07T01:50:18;32.47;;;19.88;;
15677;SDS011;7939;50.814;6.368;2024-03-07T01:52:45;32.90;;;21.08;;
15677;SDS011;7939;50.814;6.368;2024-03-07T01:55:12;33.22;;;21.08;;
15677;SDS011;7939;50.814;6.368;2024-03-07T01:57:39;29.77;;;19.35;;
15677;SDS011;7939;50.814;6.368;2024-03-07T02:00:08;31.83;;;19.63;;
15677;SDS011;7939;50.814;6.368;2024-03-07T02:02:36;34.13;;;19.77;;
15677;SDS011;7939;50.814;6.368;2024-03-07T02:05:03;34.75;;;21.98;;
15677;SDS011;7939;50.814;6.368;2024-03-07T02:07:31;32.83;;;20.77;;
15677;SDS011;7939;50.814;6.368;2024-03-07T02:09:59;35.40;;;21.67;;
15677;SDS011;7939;50.814;6.368;2024-03-07T02:12:26;32.88;;;21.20;;
15677;SDS011;7939;50.814;6.368;2024-03-07T02:14:55;36.05;;;20.98;;
15677;SDS011;7939;50.814;6.368;2024-03-07T02:17:24;36.25;;;22.60;;
15677;SDS011;7939;50.814;6.368;2024-03-07T02:19:50;35.20;;;22.30;;
15677;SDS011;7939;50.814;6.368;2024-03-07T02:22:19;34.05;;;22.67;;
15677;SDS011;7939;50.814;6.368;2024-03-07T02:24:46;34.05;;;19.77;;
15677;SDS011;7939;50.814;6.368;2024-03-07T02:27:13;34.25;;;20.80;;
15677;SDS011;7939;50.814;6.368;2024-03-07T02:29:40;34.95;;;21.13;;
15677;SDS011;7939;50.814;6.368;2024-03-07T02:32:07;36.38;;;21.92;;
15677;SDS011;7939;50.814;6.368;2024-03-07T02:34:35;37.97;;;22.45;;
15677;SDS011;7939;50.814;6.368;2024-03-07T02:37:02;33.10;;;20.95;;
15677;SDS011;7939;50.814;6.368;2024-03-07T02:39:30;41.25;;;23.80;;
15677;SDS011;7939;50.814;6.368;2024-03-07T02:41:56;39.92;;;24.15;;
15677;SDS011;7939;50.814;6.368;2024-03-07T02:44:23;35.35;;;23.45;;
15677;SDS011;7939;50.814;6.368;2024-03-07T02:46:50;37.95;;;24.48;;
15677;SDS011;7939;50.814;6.368;2024-03-07T02:49:16;34.10;;;21.27;;
15677;SDS011;7939;50.814;6.368;2024-03-07T02:51:43;34.13;;;21.60;;
15677;SDS011;7939;50.814;6.368;2024-03-07T02:54:10;35.22;;;22.73;;
15677;SDS011;7939;50.814;6.368;2024-03-07T02:56:38;39.03;;;24.17;;
15677;SDS011;7939;50.814;6.368;2024-03-07T02:59:06;37.92;;;23.17;;
15677;SDS011;7939;50.814;6.368;2024-03-07T03:01:32;36.35;;;23.10;;
15677;SDS011;7939;50.814;6.368;2024-03-07T03:03:59;34.33;;;24.02;;
15677;SDS011;7939;50.814;6.368;2024-03-07T03:06:26;35.40;;;23.00;;
15677;SDS011;7939;50.814;6.368;2024-03-07T03:08:52;38.33;;;22.88;;
15677;SDS011;7939;50.814;6.368;2024-03-07T03:11:20;38.80;;;24.00;;
15677;SDS011;7939;50.814;6.368;2024-03-07T03:13:48;34.22;;;21.80;;
15677;SDS011;7939;50.814;6.368;2024-03-07T03:16:15;35.63;;;22.45;;
15677;SDS011;7939;50.814;6.368;2024-03-07T03:18:41;36.90;;;22.52;;
15677;SDS011;7939;50.814;6.368;2024-03-07T03:21:08;35.08;;;22.27;;
15677;SDS011;7939;50.814;6.368;2024-03-07T03:23:35;33.88;;;20.80;;
15677;SDS011;7939;50.814;6.368;2024-03-07T03:26:02;37.00;;;21.83;;
15677;SDS011;7939;50.814;6.368;2024-03-07T03:28:29;35.53;;;22.48;;
15677;SDS011;7939;50.814;6.368;2024-03-07T03:30:57;38.10;;;22.70;;
15677;SDS011;7939;50.814;6.368;2024-03-07T03:33:23;33.90;;;21.08;;
15677;SDS011;7939;50.814;6.368;2024-03-07T03:35:50;38.60;;;23.85;;
15677;SDS011;7939;50.814;6.368;2024-03-07T03:38:17;38.10;;;23.70;;
15677;SDS011;7939;50.814;6.368;2024-03-07T03:40:45;38.83;;;23.08;;
15677;SDS011;7939;50.814;6.368;2024-03-07T03:43:12;35.97;;;22.45;;
15677;SDS011;7939;50.814;6.368;2024-03-07T03:45:38;38.15;;;23.65;;
15677;SDS011;7939;50.814;6.368;2024-03-07T03:48:06;38.65;;;24.75;;
15677;SDS011;7939;50.814;6.368;2024-03-07T03:50:33;37.22;;;23.50;;
15677;SDS011;7939;50.814;6.368;2024-03-07T03:53:00;36.55;;;23.35;;
15677;SDS011;7939;50.814;6.368;2024-03-07T03:55:29;35.42;;;22.50;;
15677;SDS011;7939;50.814;6.368;2024-03-07T03:57:57;37.35;;;22.02;;
15677;SDS011;7939;50.814;6.368;2024-03-07T04:00:24;40.03;;;23.35;;
15677;SDS011;7939;50.814;6.368;2024-03-07T04:02:51;37.97;;;22.08;;
15677;SDS011;7939;50.814;6.368;2024-03-07T04:05:19;35.65;;;21.13;;
15677;SDS011;7939;50.814;6.368;2024-03-07T04:07:46;38.33;;;22.77;;
15677;SDS011;7939;50.814;6.368;2024-03-07T04:10:14;34.97;;;21.15;;
15677;SDS011;7939;50.814;6.368;2024-03-07T04:12:42;41.17;;;23.60;;
15677;SDS011;7939;50.814;6.368;2024-03-07T04:15:10;33.83;;;21.95;;
15677;SDS011;7939;50.814;6.368;2024-03-07T04:17:39;33.35;;;20.58;;
15677;SDS011;7939;50.814;6.368;2024-03-07T04:20:06;38.03;;;23.80;;
15677;SDS011;7939;50.814;6.368;2024-03-07T04:22:37;38.05;;;22.15;;
15677;SDS011;7939;50.814;6.368;2024-03-07T04:25:05;33.20;;;21.10;;
15677;SDS011;7939;50.814;6.368;2024-03-07T04:27:33;35.47;;;21.80;;
15677;SDS011;7939;50.814;6.368;2024-03-07T04:30:02;38.92;;;22.00;;
15677;SDS011;7939;50.814;6.368;2024-03-07T04:32:30;37.28;;;21.02;;
15677;SDS011;7939;50.814;6.368;2024-03-07T04:34:56;37.70;;;20.92;;
15677;SDS011;7939;50.814;6.368;2024-03-07T04:37:23;40.70;;;23.40;;
15677;SDS011;7939;50.814;6.368;2024-03-07T04:39:51;41.08;;;23.20;;
15677;SDS011;7939;50.814;6.368;2024-03-07T04:42:18;39.83;;;23.73;;
15677;SDS011;7939;50.814;6.368;2024-03-07T04:44:45;41.28;;;23.52;;
15677;SDS011;7939;50.814;6.368;2024-03-07T04:47:11;37.08;;;22.73;;
15677;SDS011;7939;50.814;6.368;2024-03-07T04:49:38;47.30;;;23.15;;
15677;SDS011;7939;50.814;6.368;2024-03-07T04:52:05;39.63;;;23.13;;
15677;SDS011;7939;50.814;6.368;2024-03-07T04:54:32;39.30;;;24.02;;
15677;SDS011;7939;50.814;6.368;2024-03-07T04:57:00;40.35;;;22.38;;
15677;SDS011;7939;50.814;6.368;2024-03-07T04:59:27;39.38;;;22.25;;
15677;SDS011;7939;50.814;6.368;2024-03-07T05:01:54;41.55;;;23.17;;
15677;SDS011;7939;50.814;6.368;2024-03-07T05:04:21;38.97;;;22.60;;
15677;SDS011;7939;50.814;6.368;2024-03-07T05:06:54;41.20;;;22.70;;
15677;SDS011;7939;50.814;6.368;2024-03-07T05:09:22;45.42;;;25.92;;
15677;SDS011;7939;50.814;6.368;2024-03-07T05:11:50;40.58;;;23.58;;
15677;SDS011;7939;50.814;6.368;2024-03-07T05:14:19;38.35;;;22.05;;
15677;SDS011;7939;50.814;6.368;2024-03-07T05:16:47;37.78;;;22.42;;
15677;SDS011;7939;50.814;6.368;2024-03-07T05:19:27;36.83;;;21.63;;
15677;SDS011;7939;50.814;6.368;2024-03-07T05:21:55;43.22;;;22.38;;
15677;SDS011;7939;50.814;6.368;2024-03-07T05:24:21;40.38;;;22.02;;
15677;SDS011;7939;50.814;6.368;2024-03-07T05:26:48;36.88;;;21.08;;
15677;SDS011;7939;50.814;6.368;2024-03-07T05:29:16;37.85;;;22.95;;
15677;SDS011;7939;50.814;6.368;2024-03-07T05:31:44;40.22;;;23.55;;
15677;SDS011;7939;50.814;6.368;2024-03-07T05:34:12;42.67;;;23.42;;
15677;SDS011;7939;50.814;6.368;2024-03-07T05:36:40;36.80;;;21.58;;
15677;SDS011;7939;50.814;6.368;2024-03-07T05:39:09;44.08;;;25.67;;
15677;SDS011;7939;50.814;6.368;2024-03-07T05:41:36;41.97;;;25.15;;
15677;SDS011;7939;50.814;6.368;2024-03-07T05:44:03;46.72;;;26.42;;
15677;SDS011;7939;50.814;6.368;2024-03-07T05:46:33;44.63;;;24.80;;
15677;SDS011;7939;50.814;6.368;2024-03-07T05:49:02;42.00;;;23.65;;
15677;SDS011;7939;50.814;6.368;2024-03-07T05:51:29;41.42;;;24.17;;
15677;SDS011;7939;50.814;6.368;2024-03-07T05:53:56;46.42;;;25.48;;
15677;SDS011;7939;50.814;6.368;2024-03-07T05:56:22;44.88;;;23.73;;
15677;SDS011;7939;50.814;6.368;2024-03-07T05:58:49;40.53;;;23.00;;
15677;SDS011;7939;50.814;6.368;2024-03-07T06:01:16;40.42;;;24.05;;
15677;SDS011;7939;50.814;6.368;2024-03-07T06:03:43;37.03;;;21.75;;
15677;SDS011;7939;50.814;6.368;2024-03-07T06:06:11;44.20;;;23.13;;
15677;SDS011;7939;50.814;6.368;2024-03-07T06:08:38;37.97;;;21.85;;
15677;SDS011;7939;50.814;6.368;2024-03-07T06:11:07;37.55;;;21.92;;
15677;SDS011;7939;50.814;6.368;2024-03-07T06:13:34;35.15;;;20.13;;
15677;SDS011;7939;50.814;6.368;2024-03-07T06:16:01;35.00;;;20.17;;
15677;SDS011;7939;50.814;6.368;2024-03-07T06:18:33;31.95;;;19.35;;
15677;SDS011;7939;50.814;6.368;2024-03-07T06:21:00;36.53;;;21.00;;
15677;SDS011;7939;50.814;6.368;2024-03-07T06:23:31;34.03;;;22.15;;
15677;SDS011;7939;50.814;6.368;2024-03-07T06:25:58;33.35;;;19.50;;
15677;SDS011;7939;50.814;6.368;2024-03-07T06:28:26;35.58;;;20.95;;
15677;SDS011;7939;50.814;6.368;2024-03-07T06:30:54;36.40;;;20.65;;
15677;SDS011;7939;50.814;6.368;2024-03-07T06:33:21;34.90;;;20.58;;
15677;SDS011;7939;50.814;6.368;2024-03-07T06:35:48;34.08;;;19.80;;
15677;SDS011;7939;50.814;6.368;2024-03-07T06:38:16;34.40;;;19.70;;
15677;SDS011;7939;50.814;6.368;2024-03-07T06:40:45;37.40;;;20.65;;
15677;SDS011;7939;50.814;6.368;2024-03-07T06:43:11;38.58;;;20.92;;
15677;SDS011;7939;50.814;6.368;2024-03-07T06:45:39;37.97;;;21.17;;
15677;SDS011;7939;50.814;6.368;2024-03-07T06:48:07;38.85;;;21.60;;
15677;SDS011;7939;50.814;6.368;2024-03-07T06:50:42;37.40;;;21.63;;
15677;SDS011;7939;50.814;6.368;2024-03-07T06:53:09;37.97;;;21.13;;
15677;SDS011;7939;50.814;6.368;2024-03-07T06:55:36;36.25;;;22.42;;
15677;SDS011;7939;50.814;6.368;2024-03-07T06:58:03;37.63;;;22.45;;
15677;SDS011;7939;50.814;6.368;2024-03-07T07:00:30;39.50;;;21.15;;
15677;SDS011;7939;50.814;6.368;2024-03-07T07:03:00;34.20;;;19.85;;
15677;SDS011;7939;50.814;6.368;2024-03-07T07:05:30;34.15;;;20.20;;
15677;SDS011;7939;50.814;6.368;2024-03-07T07:07:58;33.28;;;18.98;;
15677;SDS011;7939;50.814;6.368;2024-03-07T07:10:25;33.22;;;19.42;;
15677;SDS011;7939;50.814;6.368;2024-03-07T07:12:52;33.72;;;19.55;;
15677;SDS011;7939;50.814;6.368;2024-03-07T07:15:20;41.72;;;22.67;;
15677;SDS011;7939;50.814;6.368;2024-03-07T07:17:47;37.90;;;22.15;;
15677;SDS011;7939;50.814;6.368;2024-03-07T07:20:15;39.50;;;22.38;;
15677;SDS011;7939;50.814;6.368;2024-03-07T07:22:44;36.35;;;21.70;;
15677;SDS011;7939;50.814;6.368;2024-03-07T07:25:14;40.38;;;22.60;;
15677;SDS011;7939;50.814;6.368;2024-03-07T07:27:41;37.17;;;21.65;;
15677;SDS011;7939;50.814;6.368;2024-03-07T07:30:10;34.13;;;20.67;;
15677;SDS011;7939;50.814;6.368;2024-03-07T07:32:37;34.90;;;21.20;;
15677;SDS011;7939;50.814;6.368;2024-03-07T07:35:05;41.72;;;22.00;;
15677;SDS011;7939;50.814;6.368;2024-03-07T07:37:34;37.88;;;22.70;;
15677;SDS011;7939;50.814;6.368;2024-03-07T07:40:02;42.80;;;24.25;;
15677;SDS011;7939;50.814;6.368;2024-03-07T07:42:30;42.47;;;23.50;;
15677;SDS011;7939;50.814;6.368;2024-03-07T07:44:57;38.75;;;22.40;;
15677;SDS011;7939;50.814;6.368;2024-03-07T07:47:24;34.22;;;21.23;;
15677;SDS011;7939;50.814;6.368;2024-03-07T07:49:50;39.05;;;22.17;;
15677;SDS011;7939;50.814;6.368;2024-03-07T07:52:17;38.58;;;22.58;;
15677;SDS011;7939;50.814;6.368;2024-03-07T07:54:44;37.15;;;22.70;;
15677;SDS011;7939;50.814;6.368;2024-03-07T07:57:10;39.90;;;23.33;;
15677;SDS011;7939;50.814;6.368;2024-03-07T07:59:39;38.10;;;21.48;;
15677;SDS011;7939;50.814;6.368;2024-03-07T08:02:05;42.63;;;22.17;;
15677;SDS011;7939;50.814;6.368;2024-03-07T08:04:32;35.45;;;21.73;;
15677;SDS011;7939;50.814;6.368;2024-03-07T08:06:59;39.53;;;22.02;;
15677;SDS011;7939;50.814;6.368;2024-03-07T08:09:26;36.28;;;21.10;;
15677;SDS011;7939;50.814;6.368;2024-03-07T08:11:52;37.88;;;21.33;;
15677;SDS011;7939;50.814;6.368;2024-03-07T08:14:19;37.60;;;21.88;;
15677;SDS011;7939;50.814;6.368;2024-03-07T08:16:49;37.88;;;21.35;;
15677;SDS011;7939;50.814;6.368;2024-03-07T08:19:16;42.05;;;23.55;;
15677;SDS011;7939;50.814;6.368;2024-03-07T08:21:43;43.22;;;24.52;;
15677;SDS011;7939;50.814;6.368;2024-03-07T08:24:10;50.80;;;25.85;;
15677;SDS011;7939;50.814;6.368;2024-03-07T08:26:37;44.03;;;25.38;;
15677;SDS011;7939;50.814;6.368;2024-03-07T08:29:03;44.22;;;25.67;;
15677;SDS011;7939;50.814;6.368;2024-03-07T08:31:30;43.10;;;25.08;;
15677;SDS011;7939;50.814;6.368;2024-03-07T08:33:58;43.85;;;25.10;;
15677;SDS011;7939;50.814;6.368;2024-03-07T08:36:25;47.90;;;26.58;;
15677;SDS011;7939;50.814;6.368;2024-03-07T08:38:52;43.65;;;24.63;;
15677;SDS011;7939;50.814;6.368;2024-03-07T08:41:18;44.33;;;24.98;;
15677;SDS011;7939;50.814;6.368;2024-03-07T08:43:44;50.75;;;27.23;;
15677;SDS011;7939;50.814;6.368;2024-03-07T08:46:11;42.80;;;24.77;;
15677;SDS011;7939;50.814;6.368;2024-03-07T08:48:38;46.47;;;26.17;;
15677;SDS011;7939;50.814;6.368;2024-03-07T08:51:06;40.90;;;23.45;;
15677;SDS011;7939;50.814;6.368;2024-03-07T08:53:33;39.72;;;23.83;;
15677;SDS011;7939;50.814;6.368;2024-03-07T08:56:01;35.58;;;20.85;;
15677;SDS011;7939;50.814;6.368;2024-03-07T08:58:28;46.08;;;24.05;;
15677;SDS011;7939;50.814;6.368;2024-03-07T09:00:54;34.83;;;21.95;;
15677;SDS011;7939;50.814;6.368;2024-03-07T09:03:21;38.97;;;23.73;;
15677;SDS011;7939;50.814;6.368;2024-03-07T09:05:49;33.28;;;21.95;;
15677;SDS011;7939;50.814;6.368;2024-03-07T09:08:18;39.35;;;20.85;;
15677;SDS011;7939;50.814;6.368;2024-03-07T09:10:45;36.08;;;19.90;;
15677;SDS011;7939;50.814;6.368;2024-03-07T09:13:12;42.53;;;23.15;;
15677;SDS011;7939;50.814;6.368;2024-03-07T09:15:38;33.22;;;19.90;;
15677;SDS011;7939;50.814;6.368;2024-03-07T09:18:05;35.00;;;19.80;;
15677;SDS011;7939;50.814;6.368;2024-03-07T09:20:33;38.75;;;23.25;;
15677;SDS011;7939;50.814;6.368;2024-03-07T09:23:00;42.03;;;26.50;;
15677;SDS011;7939;50.814;6.368;2024-03-07T09:25:28;31.02;;;19.80;;
15677;SDS011;7939;50.814;6.368;2024-03-07T09:27:58;30.60;;;18.60;;
15677;SDS011;7939;50.814;6.368;2024-03-07T09:30:25;33.53;;;19.10;;
15677;SDS011;7939;50.814;6.368;2024-03-07T09:32:53;30.70;;;18.00;;
15677;SDS011;7939;50.814;6.368;2024-03-07T09:35:21;33.38;;;19.58;;
15677;SDS011;7939;50.814;6.368;2024-03-07T09:37:47;31.52;;;19.38;;
15677;SDS011;7939;50.814;6.368;2024-03-07T09:40:14;35.90;;;19.80;;
15677;SDS011;7939;50.814;6.368;2024-03-07T09:42:43;32.38;;;19.25;;
15677;SDS011;7939;50.814;6.368;2024-03-07T09:45:13;28.77;;;17.50;;
15677;SDS011;7939;50.814;6.368;2024-03-07T09:47:44;29.70;;;17.02;;
15677;SDS011;7939;50.814;6.368;2024-03-07T09:50:13;28.02;;;16.67;;
15677;SDS011;7939;50.814;6.368;2024-03-07T09:52:44;32.55;;;17.88;;
15677;SDS011;7939;50.814;6.368;2024-03-07T09:55:12;31.38;;;18.90;;
15677;SDS011;7939;50.814;6.368;2024-03-07T09:57:39;29.23;;;17.02;;
15677;SDS011;7939;50.814;6.368;2024-03-07T10:00:09;27.20;;;16.98;;
15677;SDS011;7939;50.814;6.368;2024-03-07T10:02:48;27.27;;;16.00;;
15677;SDS011;7939;50.814;6.368;2024-03-07T10:05:16;25.00;;;16.13;;
15677;SDS011;7939;50.814;6.368;2024-03-07T10:07:45;25.20;;;15.32;;
15677;SDS011;7939;50.814;6.368;2024-03-07T10:10:12;26.45;;;17.17;;
15677;SDS011;7939;50.814;6.368;2024-03-07T10:12:38;24.48;;;15.75;;
15677;SDS011;7939;50.814;6.368;2024-03-07T10:15:05;24.13;;;15.70;;
15677;SDS011;7939;50.814;6.368;2024-03-07T10:17:37;30.80;;;17.25;;
15677;SDS011;7939;50.814;6.368;2024-03-07T10:20:04;24.67;;;15.75;;
15677;SDS011;7939;50.814;6.368;2024-03-07T10:22:35;26.48;;;16.80;;
15677;SDS011;7939;50.814;6.368;2024-03-07T10:25:02;25.05;;;15.13;;
15677;SDS011;7939;50.814;6.368;2024-03-07T10:27:30;27.38;;;18.60;;
15677;SDS011;7939;50.814;6.368;2024-03-07T10:29:57;27.25;;;17.42;;
15677;SDS011;7939;50.814;6.368;2024-03-07T10:32:24;31.02;;;19.73;;
15677;SDS011;7939;50.814;6.368;2024-03-07T10:34:53;25.02;;;15.80;;
15677;SDS011;7939;50.814;6.368;2024-03-07T10:37:20;28.52;;;17.02;;
15677;SDS011;7939;50.814;6.368;2024-03-07T10:39:46;27.63;;;18.05;;
15677;SDS011;7939;50.814;6.368;2024-03-07T10:42:14;30.52;;;18.13;;
15677;SDS011;7939;50.814;6.368;2024-03-07T10:44:43;28.33;;;16.27;;
15677;SDS011;7939;50.814;6.368;2024-03-07T10:47:11;27.73;;;17.45;;
15677;SDS011;7939;50.814;6.368;2024-03-07T10:49:44;30.48;;;18.17;;
15677;SDS011;7939;50.814;6.368;2024-03-07T10:52:25;29.35;;;18.70;;
15677;SDS011;7939;50.814;6.368;2024-03-07T10:55:00;28.33;;;16.63;;
15677;SDS011;7939;50.814;6.368;2024-03-07T10:57:37;28.92;;;17.65;;
15677;SDS011;7939;50.814;6.368;2024-03-07T11:00:11;26.60;;;16.60;;
15677;SDS011;7939;50.814;6.368;2024-03-07T11:02:55;27.55;;;17.75;;
15677;SDS011;7939;50.814;6.368;2024-03-07T11:05:24;31.02;;;18.83;;
15677;SDS011;7939;50.814;6.368;2024-03-07T11:07:56;29.13;;;18.30;;
15677;SDS011;7939;50.814;6.368;2024-03-07T11:10:24;32.38;;;18.73;;
15677;SDS011;7939;50.814;6.368;2024-03-07T11:12:51;29.60;;;16.42;;
15677;SDS011;7939;50.814;6.368;2024-03-07T11:15:20;25.27;;;14.25;;
15677;SDS011;7939;50.814;6.368;2024-03-07T11:17:51;27.40;;;15.80;;
15677;SDS011;7939;50.814;6.368;2024-03-07T11:20:20;24.17;;;14.68;;
15677;SDS011;7939;50.814;6.368;2024-03-07T11:22:48;31.15;;;19.02;;
15677;SDS011;7939;50.814;6.368;2024-03-07T11:25:18;26.00;;;16.35;;
15677;SDS011;7939;50.814;6.368;2024-03-07T11:27:53;28.83;;;16.70;;
15677;SDS011;7939;50.814;6.368;2024-03-07T11:30:22;29.02;;;15.70;;
15677;SDS011;7939;50.814;6.368;2024-03-07T11:32:50;26.55;;;16.35;;
15677;SDS011;7939;50.814;6.368;2024-03-07T11:35:18;26.13;;;14.77;;
15677;SDS011;7939;50.814;6.368;2024-03-07T11:37:55;28.45;;;17.23;;
15677;SDS011;7939;50.814;6.368;2024-03-07T11:43:16;23.95;;;14.27;;
15677;SDS011;7939;50.814;6.368;2024-03-07T11:45:43;22.15;;;13.32;;
15677;SDS011;7939;50.814;6.368;2024-03-07T11:48:20;26.48;;;16.30;;
15677;SDS011;7939;50.814;6.368;2024-03-07T11:50:47;26.08;;;15.20;;
15677;SDS011;7939;50.814;6.368;2024-03-07T11:53:14;25.50;;;15.38;;
15677;SDS011;7939;50.814;6.368;2024-03-07T11:55:42;21.48;;;14.73;;
15677;SDS011;7939;50.814;6.368;2024-03-07T11:58:13;27.70;;;18.00;;
15677;SDS011;7939;50.814;6.368;2024-03-07T12:00:41;27.30;;;15.77;;
15677;SDS011;7939;50.814;6.368;2024-03-07T12:03:10;23.98;;;14.63;;
15677;SDS011;7939;50.814;6.368;2024-03-07T12:05:41;27.77;;;17.98;;
15677;SDS011;7939;50.814;6.368;2024-03-07T12:08:09;23.83;;;14.40;;
15677;SDS011;7939;50.814;6.368;2024-03-07T12:10:38;21.50;;;12.55;;
15677;SDS011;7939;50.814;6.368;2024-03-07T12:13:08;21.23;;;12.35;;
15677;SDS011;7939;50.814;6.368;2024-03-07T12:15:38;24.67;;;14.40;;
15677;SDS011;7939;50.814;6.368;2024-03-07T12:18:05;28.88;;;17.13;;
15677;SDS011;7939;50.814;6.368;2024-03-07T12:20:38;25.92;;;16.48;;
15677;SDS011;7939;50.814;6.368;2024-03-07T12:23:06;22.67;;;15.02;;
15677;SDS011;7939;50.814;6.368;2024-03-07T12:25:34;23.30;;;13.32;;
15677;SDS011;7939;50.814;6.368;2024-03-07T12:28:05;27.67;;;17.90;;
15677;SDS011;7939;50.814;6.368;2024-03-07T12:30:38;19.58;;;12.90;;
15677;SDS011;7939;50.814;6.368;2024-03-07T12:33:16;22.33;;;13.30;;
15677;SDS011;7939;50.814;6.368;2024-03-07T12:35:43;23.40;;;14.00;;
15677;SDS011;7939;50.814;6.368;2024-03-07T12:38:10;20.42;;;14.40;;
15677;SDS011;7939;50.814;6.368;2024-03-07T12:40:40;21.35;;;12.75;;
15677;SDS011;7939;50.814;6.368;2024-03-07T12:43:14;20.40;;;12.75;;
15677;SDS011;7939;50.814;6.368;2024-03-07T12:45:47;19.75;;;12.95;;
15677;SDS011;7939;50.814;6.368;2024-03-07T12:48:15;20.92;;;13.32;;
15677;SDS011;7939;50.814;6.368;2024-03-07T12:50:44;18.85;;;13.50;;
15677;SDS011;7939;50.814;6.368;2024-03-07T12:53:12;20.30;;;12.73;;
15677;SDS011;7939;50.814;6.368;2024-03-07T12:55:39;20.08;;;12.75;;
15677;SDS011;7939;50.814;6.368;2024-03-07T12:58:07;17.67;;;12.27;;
15677;SDS011;7939;50.814;6.368;2024-03-07T13:00:37;22.75;;;12.88;;
15677;SDS011;7939;50.814;6.368;2024-03-07T13:03:05;17.70;;;12.00;;
15677;SDS011;7939;50.814;6.368;2024-03-07T13:05:32;19.80;;;12.40;;
15677;SDS011;7939;50.814;6.368;2024-03-07T13:07:59;20.83;;;12.73;;
15677;SDS011;7939;50.814;6.368;2024-03-07T13:10:26;21.10;;;13.05;;
15677;SDS011;7939;50.814;6.368;2024-03-07T13:12:52;19.58;;;14.02;;
15677;SDS011;7939;50.814;6.368;2024-03-07T13:15:19;16.52;;;11.50;;
15677;SDS011;7939;50.814;6.368;2024-03-07T13:17:47;20.58;;;12.73;;
15677;SDS011;7939;50.814;6.368;2024-03-07T13:20:20;19.70;;;12.23;;
15677;SDS011;7939;50.814;6.368;2024-03-07T13:22:51;21.23;;;13.50;;
15677;SDS011;7939;50.814;6.368;2024-03-07T13:25:18;18.90;;;11.85;;
15677;SDS011;7939;50.814;6.368;2024-03-07T13:27:52;22.17;;;14.95;;
15677;SDS011;7939;50.814;6.368;2024-03-07T13:30:24;19.90;;;12.45;;
15677;SDS011;7939;50.814;6.368;2024-03-07T13:32:54;18.95;;;12.20;;
15677;SDS011;7939;50.814;6.368;2024-03-07T13:35:22;20.58;;;11.38;;
15677;SDS011;7939;50.814;6.368;2024-03-07T13:37:51;18.30;;;12.07;;
15677;SDS011;7939;50.814;6.368;2024-03-07T13:40:19;17.70;;;10.63;;
15677;SDS011;7939;50.814;6.368;2024-03-07T13:42:50;18.88;;;11.93;;
15677;SDS011;7939;50.814;6.368;2024-03-07T13:45:20;22.83;;;12.45;;
15677;SDS011;7939;50.814;6.368;2024-03-07T13:47:48;18.08;;;12.55;;
15677;SDS011;7939;50.814;6.368;2024-03-07T13:50:17;21.52;;;13.20;;
15677;SDS011;7939;50.814;6.368;2024-03-07T13:52:49;20.50;;;12.73;;
15677;SDS011;7939;50.814;6.368;2024-03-07T13:55:40;18.65;;;11.85;;
15677;SDS011;7939;50.814;6.368;2024-03-07T13:58:17;20.98;;;12.73;;
15677;SDS011;7939;50.814;6.368;2024-03-07T14:00:53;19.90;;;13.02;;
15677;SDS011;7939;50.814;6.368;2024-03-07T14:03:30;16.20;;;11.38;;
15677;SDS011;7939;50.814;6.368;2024-03-07T14:06:13;18.60;;;11.40;;
15677;SDS011;7939;50.814;6.368;2024-03-07T14:12:08;17.33;;;11.30;;
15677;SDS011;7939;50.814;6.368;2024-03-07T14:15:04;18.88;;;11.75;;
15677;SDS011;7939;50.814;6.368;2024-03-07T14:21:44;16.50;;;10.60;;
15677;SDS011;7939;50.814;6.368;2024-03-07T14:27:23;17.55;;;12.38;;
15677;SDS011;7939;50.814;6.368;2024-03-07T14:30:08;18.40;;;11.73;;
15677;SDS011;7939;50.814;6.368;2024-03-07T14:32:48;17.00;;;11.93;;
15677;SDS011;7939;50.814;6.368;2024-03-07T14:35:17;18.90;;;11.85;;
15677;SDS011;7939;50.814;6.368;2024-03-07T14:37:52;19.42;;;12.18;;
15677;SDS011;7939;50.814;6.368;2024-03-07T14:40:22;17.05;;;10.57;;
15677;SDS011;7939;50.814;6.368;2024-03-07T14:42:54;19.67;;;12.60;;
15677;SDS011;7939;50.814;6.368;2024-03-07T14:45:25;17.08;;;11.68;;
15677;SDS011;7939;50.814;6.368;2024-03-07T14:47:57;21.75;;;10.65;;
15677;SDS011;7939;50.814;6.368;2024-03-07T14:50:26;15.77;;;9.95;;
15677;SDS011;7939;50.814;6.368;2024-03-07T14:52:55;13.95;;;9.93;;
15677;SDS011;7939;50.814;6.368;2024-03-07T14:55:22;17.92;;;10.00;;
15677;SDS011;7939;50.814;6.368;2024-03-07T14:57:49;16.73;;;10.75;;